sensor_id;sensor_type;location;lat;lon;timestamp;P1;durP1;ratioP1;P2;durP2;ratioP2
25731;SDS011;13585;50.864;4.406;2023-09-12T00:07:10;10.88;;;7.25;;
25731;SDS011;13585;50.864;4.406;2023-09-12T00:12:45;9.80;;;6.90;;
25731;SDS011;13585;50.864;4.406;2023-09-12T00:15:11;11.23;;;7.13;;
25731;SDS011;13585;50.864;4.406;2023-09-12T00:17:43;13.57;;;7.70;;
25731;SDS011;13585;50.864;4.406;2023-09-12T00:22:46;11.80;;;6.97;;
25731;SDS011;13585;50.864;4.406;2023-09-12T00:25:12;13.88;;;7.53;;
25731;SDS011;13585;50.864;4.406;2023-09-12T00:27:38;10.80;;;6.72;;
25731;SDS011;13585;50.864;4.406;2023-09-12T00:30:06;10.50;;;6.63;;
25731;SDS011;13585;50.864;4.406;2023-09-12T00:32:32;12.77;;;7.63;;
25731;SDS011;13585;50.864;4.406;2023-09-12T00:35:01;11.57;;;7.35;;
25731;SDS011;13585;50.864;4.406;2023-09-12T00:37:26;12.07;;;7.35;;
25731;SDS011;13585;50.864;4.406;2023-09-12T00:39:55;10.82;;;7.57;;
25731;SDS011;13585;50.864;4.406;2023-09-12T00:42:24;13.90;;;7.68;;
25731;SDS011;13585;50.864;4.406;2023-09-12T00:44:53;10.95;;;7.32;;
25731;SDS011;13585;50.864;4.406;2023-09-12T00:47:22;12.23;;;7.20;;
25731;SDS011;13585;50.864;4.406;2023-09-12T00:49:49;13.00;;;8.02;;
25731;SDS011;13585;50.864;4.406;2023-09-12T00:52:16;12.32;;;8.40;;
25731;SDS011;13585;50.864;4.406;2023-09-12T00:54:43;12.38;;;8.02;;
25731;SDS011;13585;50.864;4.406;2023-09-12T00:57:13;13.60;;;8.40;;
25731;SDS011;13585;50.864;4.406;2023-09-12T00:59:39;11.15;;;8.10;;
25731;SDS011;13585;50.864;4.406;2023-09-12T01:02:05;13.68;;;8.02;;
25731;SDS011;13585;50.864;4.406;2023-09-12T01:04:31;14.20;;;8.43;;
25731;SDS011;13585;50.864;4.406;2023-09-12T01:07:02;13.20;;;7.95;;
25731;SDS011;13585;50.864;4.406;2023-09-12T01:09:28;12.13;;;7.83;;
25731;SDS011;13585;50.864;4.406;2023-09-12T01:11:54;13.98;;;7.85;;
25731;SDS011;13585;50.864;4.406;2023-09-12T01:14:20;13.77;;;7.88;;
25731;SDS011;13585;50.864;4.406;2023-09-12T01:16:52;14.02;;;7.88;;
25731;SDS011;13585;50.864;4.406;2023-09-12T01:19:26;12.10;;;7.40;;
25731;SDS011;13585;50.864;4.406;2023-09-12T01:27:41;12.30;;;6.80;;
25731;SDS011;13585;50.864;4.406;2023-09-12T01:30:11;10.75;;;6.75;;
25731;SDS011;13585;50.864;4.406;2023-09-12T01:32:39;11.93;;;7.10;;
25731;SDS011;13585;50.864;4.406;2023-09-12T01:35:06;9.43;;;6.30;;
25731;SDS011;13585;50.864;4.406;2023-09-12T01:37:33;10.27;;;6.88;;
25731;SDS011;13585;50.864;4.406;2023-09-12T01:40:02;16.52;;;6.45;;
25731;SDS011;13585;50.864;4.406;2023-09-12T01:42:30;12.18;;;6.68;;
25731;SDS011;13585;50.864;4.406;2023-09-12T01:45:04;8.27;;;6.10;;
25731;SDS011;13585;50.864;4.406;2023-09-12T01:51:40;9.45;;;6.57;;
25731;SDS011;13585;50.864;4.406;2023-09-12T01:54:06;11.05;;;6.30;;
25731;SDS011;13585;50.864;4.406;2023-09-12T01:56:32;11.60;;;6.60;;
25731;SDS011;13585;50.864;4.406;2023-09-12T02:05:41;14.95;;;6.70;;
25731;SDS011;13585;50.864;4.406;2023-09-12T02:13:34;12.80;;;6.93;;
25731;SDS011;13585;50.864;4.406;2023-09-12T02:16:00;11.57;;;7.03;;
25731;SDS011;13585;50.864;4.406;2023-09-12T02:18:28;12.45;;;7.75;;
25731;SDS011;13585;50.864;4.406;2023-09-12T02:20:54;12.48;;;8.77;;
25731;SDS011;13585;50.864;4.406;2023-09-12T02:23:19;12.15;;;8.35;;
25731;SDS011;13585;50.864;4.406;2023-09-12T02:25:45;15.13;;;8.88;;
25731;SDS011;13585;50.864;4.406;2023-09-12T02:28:11;12.85;;;8.85;;
25731;SDS011;13585;50.864;4.406;2023-09-12T02:30:39;16.55;;;9.90;;
25731;SDS011;13585;50.864;4.406;2023-09-12T02:33:05;14.60;;;9.82;;
25731;SDS011;13585;50.864;4.406;2023-09-12T02:35:31;13.98;;;9.35;;
25731;SDS011;13585;50.864;4.406;2023-09-12T02:38:00;14.27;;;9.20;;
25731;SDS011;13585;50.864;4.406;2023-09-12T02:40:26;12.30;;;8.88;;
25731;SDS011;13585;50.864;4.406;2023-09-12T02:42:52;13.48;;;9.02;;
25731;SDS011;13585;50.864;4.406;2023-09-12T02:45:18;13.00;;;9.60;;
25731;SDS011;13585;50.864;4.406;2023-09-12T02:47:43;15.93;;;9.65;;
25731;SDS011;13585;50.864;4.406;2023-09-12T02:50:11;13.07;;;10.23;;
25731;SDS011;13585;50.864;4.406;2023-09-12T02:52:37;12.00;;;9.13;;
25731;SDS011;13585;50.864;4.406;2023-09-12T02:55:02;15.35;;;9.40;;
25731;SDS011;13585;50.864;4.406;2023-09-12T02:57:31;13.50;;;9.88;;
25731;SDS011;13585;50.864;4.406;2023-09-12T02:59:57;16.77;;;10.20;;
25731;SDS011;13585;50.864;4.406;2023-09-12T03:02:22;15.55;;;10.25;;
25731;SDS011;13585;50.864;4.406;2023-09-12T03:04:48;14.27;;;9.80;;
25731;SDS011;13585;50.864;4.406;2023-09-12T03:07:14;18.70;;;10.50;;
25731;SDS011;13585;50.864;4.406;2023-09-12T03:09:39;14.13;;;9.48;;
25731;SDS011;13585;50.864;4.406;2023-09-12T03:12:05;16.40;;;11.02;;
25731;SDS011;13585;50.864;4.406;2023-09-12T03:14:31;14.55;;;10.30;;
25731;SDS011;13585;50.864;4.406;2023-09-12T03:16:57;15.25;;;10.15;;
25731;SDS011;13585;50.864;4.406;2023-09-12T03:19:26;16.33;;;10.68;;
25731;SDS011;13585;50.864;4.406;2023-09-12T03:21:51;12.88;;;10.18;;
25731;SDS011;13585;50.864;4.406;2023-09-12T03:24:17;14.95;;;10.60;;
25731;SDS011;13585;50.864;4.406;2023-09-12T03:26:43;16.02;;;10.38;;
25731;SDS011;13585;50.864;4.406;2023-09-12T03:29:09;17.08;;;10.43;;
25731;SDS011;13585;50.864;4.406;2023-09-12T03:31:35;15.45;;;10.23;;
25731;SDS011;13585;50.864;4.406;2023-09-12T03:34:00;14.88;;;10.73;;
25731;SDS011;13585;50.864;4.406;2023-09-12T03:36:26;16.63;;;10.70;;
25731;SDS011;13585;50.864;4.406;2023-09-12T03:38:52;15.02;;;10.80;;
25731;SDS011;13585;50.864;4.406;2023-09-12T03:41:17;15.43;;;10.88;;
25731;SDS011;13585;50.864;4.406;2023-09-12T03:43:50;15.68;;;10.10;;
25731;SDS011;13585;50.864;4.406;2023-09-12T03:46:31;16.30;;;11.25;;
25731;SDS011;13585;50.864;4.406;2023-09-12T03:48:57;15.50;;;10.55;;
25731;SDS011;13585;50.864;4.406;2023-09-12T03:51:33;14.45;;;10.57;;
25731;SDS011;13585;50.864;4.406;2023-09-12T03:54:00;14.55;;;10.07;;
25731;SDS011;13585;50.864;4.406;2023-09-12T03:56:25;15.60;;;10.23;;
25731;SDS011;13585;50.864;4.406;2023-09-12T03:58:51;13.90;;;10.10;;
25731;SDS011;13585;50.864;4.406;2023-09-12T04:01:16;16.00;;;10.38;;
25731;SDS011;13585;50.864;4.406;2023-09-12T04:03:43;14.18;;;9.90;;
25731;SDS011;13585;50.864;4.406;2023-09-12T04:06:09;16.55;;;10.43;;
25731;SDS011;13585;50.864;4.406;2023-09-12T04:08:35;16.85;;;10.68;;
25731;SDS011;13585;50.864;4.406;2023-09-12T04:11:00;18.52;;;10.15;;
25731;SDS011;13585;50.864;4.406;2023-09-12T04:13:26;14.80;;;10.35;;
25731;SDS011;13585;50.864;4.406;2023-09-12T04:15:52;17.05;;;10.52;;
25731;SDS011;13585;50.864;4.406;2023-09-12T04:18:17;14.43;;;10.93;;
25731;SDS011;13585;50.864;4.406;2023-09-12T04:20:44;18.52;;;11.80;;
25731;SDS011;13585;50.864;4.406;2023-09-12T04:23:10;19.02;;;11.07;;
25731;SDS011;13585;50.864;4.406;2023-09-12T04:25:36;15.23;;;10.05;;
25731;SDS011;13585;50.864;4.406;2023-09-12T04:28:13;16.90;;;11.65;;
25731;SDS011;13585;50.864;4.406;2023-09-12T04:30:39;18.13;;;11.50;;
25731;SDS011;13585;50.864;4.406;2023-09-12T04:33:05;14.65;;;10.25;;
25731;SDS011;13585;50.864;4.406;2023-09-12T04:35:33;15.13;;;11.18;;
25731;SDS011;13585;50.864;4.406;2023-09-12T04:38:02;16.17;;;10.70;;
25731;SDS011;13585;50.864;4.406;2023-09-12T04:40:28;16.02;;;10.68;;
25731;SDS011;13585;50.864;4.406;2023-09-12T04:42:54;14.15;;;10.38;;
25731;SDS011;13585;50.864;4.406;2023-09-12T04:45:26;14.85;;;11.02;;
25731;SDS011;13585;50.864;4.406;2023-09-12T04:47:52;17.52;;;10.65;;
25731;SDS011;13585;50.864;4.406;2023-09-12T04:50:18;15.77;;;11.25;;
25731;SDS011;13585;50.864;4.406;2023-09-12T04:52:43;16.55;;;12.00;;
25731;SDS011;13585;50.864;4.406;2023-09-12T04:55:09;18.55;;;10.65;;
25731;SDS011;13585;50.864;4.406;2023-09-12T04:57:38;14.90;;;10.50;;
25731;SDS011;13585;50.864;4.406;2023-09-12T05:00:03;14.57;;;10.07;;
25731;SDS011;13585;50.864;4.406;2023-09-12T05:02:30;14.43;;;10.68;;
25731;SDS011;13585;50.864;4.406;2023-09-12T05:04:59;12.73;;;9.30;;
25731;SDS011;13585;50.864;4.406;2023-09-12T05:07:27;13.00;;;9.43;;
25731;SDS011;13585;50.864;4.406;2023-09-12T05:09:53;11.35;;;8.52;;
25731;SDS011;13585;50.864;4.406;2023-09-12T05:12:18;12.23;;;7.68;;
25731;SDS011;13585;50.864;4.406;2023-09-12T05:14:44;13.60;;;9.18;;
25731;SDS011;13585;50.864;4.406;2023-09-12T05:17:10;19.95;;;10.68;;
25731;SDS011;13585;50.864;4.406;2023-09-12T05:19:35;13.50;;;9.32;;
25731;SDS011;13585;50.864;4.406;2023-09-12T05:22:19;16.83;;;8.95;;
25731;SDS011;13585;50.864;4.406;2023-09-12T05:24:45;14.38;;;9.55;;
25731;SDS011;13585;50.864;4.406;2023-09-12T05:27:11;13.05;;;8.95;;
25731;SDS011;13585;50.864;4.406;2023-09-12T05:29:43;15.77;;;9.48;;
25731;SDS011;13585;50.864;4.406;2023-09-12T05:32:09;15.77;;;9.23;;
25731;SDS011;13585;50.864;4.406;2023-09-12T05:34:37;12.82;;;9.30;;
25731;SDS011;13585;50.864;4.406;2023-09-12T05:37:10;13.10;;;9.05;;
25731;SDS011;13585;50.864;4.406;2023-09-12T05:42:58;14.20;;;8.48;;
25731;SDS011;13585;50.864;4.406;2023-09-12T05:45:23;14.60;;;9.40;;
25731;SDS011;13585;50.864;4.406;2023-09-12T05:47:49;13.70;;;8.65;;
25731;SDS011;13585;50.864;4.406;2023-09-12T05:57:07;13.20;;;7.90;;
25731;SDS011;13585;50.864;4.406;2023-09-12T06:02:10;10.35;;;7.80;;
25731;SDS011;13585;50.864;4.406;2023-09-12T06:07:59;12.63;;;8.63;;
25731;SDS011;13585;50.864;4.406;2023-09-12T06:13:23;11.27;;;8.00;;
25731;SDS011;13585;50.864;4.406;2023-09-12T06:26:57;9.73;;;7.28;;
25731;SDS011;13585;50.864;4.406;2023-09-12T06:29:52;13.10;;;7.68;;
25731;SDS011;13585;50.864;4.406;2023-09-12T06:56:01;8.13;;;6.15;;
25731;SDS011;13585;50.864;4.406;2023-09-12T07:09:26;11.65;;;6.80;;
25731;SDS011;13585;50.864;4.406;2023-09-12T07:18:13;11.43;;;7.22;;
25731;SDS011;13585;50.864;4.406;2023-09-12T07:23:55;11.00;;;7.50;;
25731;SDS011;13585;50.864;4.406;2023-09-12T07:26:21;12.57;;;8.13;;
25731;SDS011;13585;50.864;4.406;2023-09-12T07:28:48;11.88;;;7.70;;
25731;SDS011;13585;50.864;4.406;2023-09-12T07:31:32;11.90;;;7.97;;
25731;SDS011;13585;50.864;4.406;2023-09-12T07:33:58;12.38;;;7.85;;
25731;SDS011;13585;50.864;4.406;2023-09-12T07:36:25;12.32;;;7.63;;
25731;SDS011;13585;50.864;4.406;2023-09-12T07:38:54;9.73;;;7.15;;
25731;SDS011;13585;50.864;4.406;2023-09-12T07:41:20;12.70;;;7.53;;
25731;SDS011;13585;50.864;4.406;2023-09-12T07:43:46;11.02;;;7.18;;
25731;SDS011;13585;50.864;4.406;2023-09-12T07:46:24;15.07;;;7.07;;
25731;SDS011;13585;50.864;4.406;2023-09-12T07:48:54;12.50;;;7.43;;
25731;SDS011;13585;50.864;4.406;2023-09-12T07:51:23;12.15;;;6.50;;
25731;SDS011;13585;50.864;4.406;2023-09-12T07:53:49;12.52;;;7.00;;
25731;SDS011;13585;50.864;4.406;2023-09-12T07:56:18;12.00;;;7.75;;
25731;SDS011;13585;50.864;4.406;2023-09-12T07:58:57;9.88;;;6.53;;
25731;SDS011;13585;50.864;4.406;2023-09-12T08:01:23;12.82;;;6.88;;
25731;SDS011;13585;50.864;4.406;2023-09-12T08:03:48;11.35;;;6.65;;
25731;SDS011;13585;50.864;4.406;2023-09-12T08:09:13;8.45;;;6.28;;
25731;SDS011;13585;50.864;4.406;2023-09-12T08:11:39;9.60;;;5.95;;
25731;SDS011;13585;50.864;4.406;2023-09-12T08:14:13;10.30;;;6.22;;
25731;SDS011;13585;50.864;4.406;2023-09-12T08:16:39;9.43;;;6.05;;
25731;SDS011;13585;50.864;4.406;2023-09-12T08:22:33;10.07;;;6.40;;
25731;SDS011;13585;50.864;4.406;2023-09-12T08:27:43;10.85;;;6.55;;
25731;SDS011;13585;50.864;4.406;2023-09-12T08:30:09;9.80;;;6.13;;
25731;SDS011;13585;50.864;4.406;2023-09-12T08:32:56;5.22;;;3.78;;
25731;SDS011;13585;50.864;4.406;2023-09-12T08:35:27;5.13;;;3.90;;
25731;SDS011;13585;50.864;4.406;2023-09-12T08:38:11;8.93;;;5.05;;
25731;SDS011;13585;50.864;4.406;2023-09-12T08:40:51;13.93;;;8.48;;
25731;SDS011;13585;50.864;4.406;2023-09-12T08:43:17;16.67;;;10.00;;
25731;SDS011;13585;50.864;4.406;2023-09-12T08:45:44;16.73;;;10.63;;
25731;SDS011;13585;50.864;4.406;2023-09-12T08:48:17;15.98;;;9.73;;
25731;SDS011;13585;50.864;4.406;2023-09-12T08:50:44;17.83;;;10.73;;
25731;SDS011;13585;50.864;4.406;2023-09-12T08:53:12;15.98;;;10.43;;
25731;SDS011;13585;50.864;4.406;2023-09-12T08:55:38;17.30;;;10.95;;
25731;SDS011;13585;50.864;4.406;2023-09-12T08:58:04;20.98;;;11.68;;
25731;SDS011;13585;50.864;4.406;2023-09-12T09:00:30;13.13;;;7.05;;
25731;SDS011;13585;50.864;4.406;2023-09-12T09:02:56;9.93;;;5.90;;
25731;SDS011;13585;50.864;4.406;2023-09-12T09:05:44;15.00;;;9.68;;
25731;SDS011;13585;50.864;4.406;2023-09-12T09:08:12;21.60;;;10.95;;
25731;SDS011;13585;50.864;4.406;2023-09-12T09:10:39;19.65;;;10.73;;
25731;SDS011;13585;50.864;4.406;2023-09-12T09:13:22;19.25;;;11.40;;
25731;SDS011;13585;50.864;4.406;2023-09-12T09:15:48;17.73;;;10.95;;
25731;SDS011;13585;50.864;4.406;2023-09-12T09:18:14;8.82;;;6.20;;
25731;SDS011;13585;50.864;4.406;2023-09-12T09:20:39;12.48;;;7.85;;
25731;SDS011;13585;50.864;4.406;2023-09-12T09:23:07;16.33;;;10.02;;
25731;SDS011;13585;50.864;4.406;2023-09-12T09:25:41;13.75;;;8.40;;
25731;SDS011;13585;50.864;4.406;2023-09-12T09:28:26;19.30;;;10.60;;
25731;SDS011;13585;50.864;4.406;2023-09-12T09:33:39;16.02;;;9.85;;
25731;SDS011;13585;50.864;4.406;2023-09-12T09:36:15;12.55;;;7.15;;
25731;SDS011;13585;50.864;4.406;2023-09-12T09:38:40;8.80;;;5.70;;
25731;SDS011;13585;50.864;4.406;2023-09-12T09:41:06;10.93;;;7.13;;
25731;SDS011;13585;50.864;4.406;2023-09-12T09:43:32;12.30;;;7.15;;
25731;SDS011;13585;50.864;4.406;2023-09-12T09:45:58;8.48;;;5.53;;
25731;SDS011;13585;50.864;4.406;2023-09-12T09:48:25;12.82;;;4.95;;
25731;SDS011;13585;50.864;4.406;2023-09-12T09:51:02;9.07;;;4.80;;
25731;SDS011;13585;50.864;4.406;2023-09-12T09:53:31;11.93;;;5.88;;
25731;SDS011;13585;50.864;4.406;2023-09-12T09:58:56;9.25;;;5.88;;
25731;SDS011;13585;50.864;4.406;2023-09-12T10:01:22;13.23;;;7.20;;
25731;SDS011;13585;50.864;4.406;2023-09-12T10:03:58;11.52;;;7.22;;
25731;SDS011;13585;50.864;4.406;2023-09-12T10:06:34;12.98;;;5.70;;
25731;SDS011;13585;50.864;4.406;2023-09-12T10:09:01;9.82;;;5.50;;
25731;SDS011;13585;50.864;4.406;2023-09-12T10:11:32;7.40;;;5.22;;
25731;SDS011;13585;50.864;4.406;2023-09-12T10:13:59;7.55;;;5.07;;
25731;SDS011;13585;50.864;4.406;2023-09-12T10:16:33;6.70;;;4.80;;
25731;SDS011;13585;50.864;4.406;2023-09-12T10:24:13;9.52;;;5.25;;
25731;SDS011;13585;50.864;4.406;2023-09-12T10:26:39;12.23;;;6.10;;
25731;SDS011;13585;50.864;4.406;2023-09-12T10:29:09;11.70;;;6.03;;
25731;SDS011;13585;50.864;4.406;2023-09-12T10:31:40;8.00;;;5.17;;
25731;SDS011;13585;50.864;4.406;2023-09-12T10:34:06;10.30;;;6.93;;
25731;SDS011;13585;50.864;4.406;2023-09-12T10:36:36;9.27;;;6.32;;
25731;SDS011;13585;50.864;4.406;2023-09-12T10:39:04;8.52;;;5.78;;
25731;SDS011;13585;50.864;4.406;2023-09-12T10:41:32;9.80;;;6.25;;
25731;SDS011;13585;50.864;4.406;2023-09-12T10:44:04;10.73;;;5.78;;
25731;SDS011;13585;50.864;4.406;2023-09-12T10:46:38;12.13;;;5.18;;
25731;SDS011;13585;50.864;4.406;2023-09-12T10:49:11;7.55;;;5.32;;
25731;SDS011;13585;50.864;4.406;2023-09-12T10:51:39;9.43;;;5.55;;
25731;SDS011;13585;50.864;4.406;2023-09-12T10:54:06;9.00;;;5.47;;
25731;SDS011;13585;50.864;4.406;2023-09-12T10:56:33;8.13;;;5.28;;
25731;SDS011;13585;50.864;4.406;2023-09-12T11:01:37;9.77;;;5.10;;
25731;SDS011;13585;50.864;4.406;2023-09-12T11:06:55;7.00;;;5.28;;
25731;SDS011;13585;50.864;4.406;2023-09-12T11:09:23;7.70;;;5.28;;
25731;SDS011;13585;50.864;4.406;2023-09-12T11:11:54;9.30;;;5.18;;
25731;SDS011;13585;50.864;4.406;2023-09-12T11:14:21;7.93;;;5.00;;
25731;SDS011;13585;50.864;4.406;2023-09-12T11:19:45;10.35;;;4.95;;
25731;SDS011;13585;50.864;4.406;2023-09-12T11:25:01;8.65;;;5.22;;
25731;SDS011;13585;50.864;4.406;2023-09-12T11:30:26;6.43;;;4.75;;
25731;SDS011;13585;50.864;4.406;2023-09-12T11:32:55;11.23;;;5.20;;
25731;SDS011;13585;50.864;4.406;2023-09-12T11:35:22;7.13;;;4.85;;
25731;SDS011;13585;50.864;4.406;2023-09-12T11:37:50;8.30;;;4.85;;
25731;SDS011;13585;50.864;4.406;2023-09-12T11:40:22;7.72;;;4.65;;
25731;SDS011;13585;50.864;4.406;2023-09-12T11:43:06;7.47;;;4.75;;
25731;SDS011;13585;50.864;4.406;2023-09-12T11:45:32;6.90;;;5.05;;
25731;SDS011;13585;50.864;4.406;2023-09-12T11:47:58;8.00;;;4.57;;
25731;SDS011;13585;50.864;4.406;2023-09-12T11:50:30;5.05;;;4.18;;
25731;SDS011;13585;50.864;4.406;2023-09-12T11:53:00;6.70;;;4.15;;
25731;SDS011;13585;50.864;4.406;2023-09-12T11:55:37;4.72;;;4.07;;
25731;SDS011;13585;50.864;4.406;2023-09-12T11:58:08;6.88;;;4.22;;
25731;SDS011;13585;50.864;4.406;2023-09-12T12:00:36;10.48;;;4.95;;
25731;SDS011;13585;50.864;4.406;2023-09-12T12:03:02;10.05;;;4.90;;
25731;SDS011;13585;50.864;4.406;2023-09-12T12:05:29;6.00;;;4.30;;
25731;SDS011;13585;50.864;4.406;2023-09-12T12:07:55;8.02;;;4.43;;
25731;SDS011;13585;50.864;4.406;2023-09-12T12:10:23;7.03;;;4.68;;
25731;SDS011;13585;50.864;4.406;2023-09-12T12:12:52;6.70;;;4.45;;
25731;SDS011;13585;50.864;4.406;2023-09-12T12:15:18;7.93;;;4.65;;
25731;SDS011;13585;50.864;4.406;2023-09-12T12:17:44;6.93;;;4.30;;
25731;SDS011;13585;50.864;4.406;2023-09-12T12:20:28;5.80;;;4.03;;
25731;SDS011;13585;50.864;4.406;2023-09-12T12:22:55;6.63;;;4.00;;
25731;SDS011;13585;50.864;4.406;2023-09-12T12:25:21;5.70;;;4.22;;
25731;SDS011;13585;50.864;4.406;2023-09-12T12:27:47;5.45;;;4.47;;
25731;SDS011;13585;50.864;4.406;2023-09-12T12:30:13;6.35;;;4.35;;
25731;SDS011;13585;50.864;4.406;2023-09-12T12:32:40;7.10;;;4.53;;
25731;SDS011;13585;50.864;4.406;2023-09-12T12:35:06;9.30;;;4.68;;
25731;SDS011;13585;50.864;4.406;2023-09-12T12:37:33;7.43;;;4.22;;
25731;SDS011;13585;50.864;4.406;2023-09-12T12:40:01;7.53;;;4.28;;
25731;SDS011;13585;50.864;4.406;2023-09-12T12:42:34;5.18;;;4.07;;
25731;SDS011;13585;50.864;4.406;2023-09-12T12:45:00;6.63;;;4.30;;
25731;SDS011;13585;50.864;4.406;2023-09-12T12:47:27;7.80;;;4.15;;
25731;SDS011;13585;50.864;4.406;2023-09-12T12:49:54;7.35;;;4.18;;
25731;SDS011;13585;50.864;4.406;2023-09-12T12:52:26;4.80;;;4.00;;
25731;SDS011;13585;50.864;4.406;2023-09-12T12:55:27;6.85;;;4.45;;
25731;SDS011;13585;50.864;4.406;2023-09-12T12:57:53;5.93;;;4.10;;
25731;SDS011;13585;50.864;4.406;2023-09-12T13:00:18;7.13;;;3.97;;
25731;SDS011;13585;50.864;4.406;2023-09-12T13:02:46;6.57;;;4.60;;
25731;SDS011;13585;50.864;4.406;2023-09-12T13:05:27;8.20;;;4.20;;
25731;SDS011;13585;50.864;4.406;2023-09-12T13:07:53;9.02;;;3.90;;
25731;SDS011;13585;50.864;4.406;2023-09-12T13:12:55;5.97;;;4.32;;
25731;SDS011;13585;50.864;4.406;2023-09-12T13:15:21;7.60;;;4.00;;
25731;SDS011;13585;50.864;4.406;2023-09-12T13:17:48;6.90;;;4.20;;
25731;SDS011;13585;50.864;4.406;2023-09-12T13:20:14;4.93;;;3.92;;
25731;SDS011;13585;50.864;4.406;2023-09-12T13:22:39;7.20;;;4.95;;
25731;SDS011;13585;50.864;4.406;2023-09-12T13:25:05;7.63;;;4.35;;
25731;SDS011;13585;50.864;4.406;2023-09-12T13:27:32;6.00;;;4.60;;
25731;SDS011;13585;50.864;4.406;2023-09-12T13:29:58;5.70;;;4.15;;
25731;SDS011;13585;50.864;4.406;2023-09-12T13:32:24;7.07;;;4.63;;
25731;SDS011;13585;50.864;4.406;2023-09-12T13:34:50;7.20;;;4.03;;
25731;SDS011;13585;50.864;4.406;2023-09-12T13:37:15;5.50;;;4.57;;
25731;SDS011;13585;50.864;4.406;2023-09-12T13:39:42;6.65;;;4.80;;
25731;SDS011;13585;50.864;4.406;2023-09-12T13:42:13;6.35;;;4.40;;
25731;SDS011;13585;50.864;4.406;2023-09-12T13:44:43;7.50;;;5.05;;
25731;SDS011;13585;50.864;4.406;2023-09-12T13:47:09;8.40;;;4.70;;
25731;SDS011;13585;50.864;4.406;2023-09-12T13:49:34;6.38;;;4.13;;
25731;SDS011;13585;50.864;4.406;2023-09-12T13:52:10;7.82;;;5.47;;
25731;SDS011;13585;50.864;4.406;2023-09-12T13:54:36;7.25;;;5.25;;
25731;SDS011;13585;50.864;4.406;2023-09-12T13:57:01;9.35;;;5.53;;
25731;SDS011;13585;50.864;4.406;2023-09-12T13:59:36;8.40;;;5.38;;
25731;SDS011;13585;50.864;4.406;2023-09-12T14:02:01;8.80;;;5.50;;
25731;SDS011;13585;50.864;4.406;2023-09-12T14:04:27;6.50;;;4.78;;
25731;SDS011;13585;50.864;4.406;2023-09-12T14:06:53;10.52;;;6.05;;
25731;SDS011;13585;50.864;4.406;2023-09-12T14:09:38;11.73;;;7.00;;
25731;SDS011;13585;50.864;4.406;2023-09-12T14:12:04;11.05;;;6.80;;
25731;SDS011;13585;50.864;4.406;2023-09-12T14:14:31;8.82;;;5.10;;
25731;SDS011;13585;50.864;4.406;2023-09-12T14:16:56;10.40;;;7.05;;
25731;SDS011;13585;50.864;4.406;2023-09-12T14:19:22;9.80;;;6.75;;
25731;SDS011;13585;50.864;4.406;2023-09-12T14:21:47;9.65;;;7.15;;
25731;SDS011;13585;50.864;4.406;2023-09-12T14:24:13;11.02;;;7.70;;
25731;SDS011;13585;50.864;4.406;2023-09-12T14:26:45;12.85;;;7.25;;
25731;SDS011;13585;50.864;4.406;2023-09-12T14:29:10;8.77;;;6.65;;
25731;SDS011;13585;50.864;4.406;2023-09-12T14:31:36;8.93;;;6.80;;
25731;SDS011;13585;50.864;4.406;2023-09-12T14:34:12;9.25;;;6.82;;
25731;SDS011;13585;50.864;4.406;2023-09-12T14:36:50;10.63;;;6.88;;
25731;SDS011;13585;50.864;4.406;2023-09-12T14:39:44;10.60;;;7.03;;
25731;SDS011;13585;50.864;4.406;2023-09-12T14:42:13;10.02;;;6.78;;
25731;SDS011;13585;50.864;4.406;2023-09-12T14:44:45;11.82;;;6.88;;
25731;SDS011;13585;50.864;4.406;2023-09-12T14:47:17;9.02;;;6.45;;
25731;SDS011;13585;50.864;4.406;2023-09-12T14:49:43;8.40;;;6.45;;
25731;SDS011;13585;50.864;4.406;2023-09-12T14:52:15;7.72;;;6.05;;
25731;SDS011;13585;50.864;4.406;2023-09-12T14:54:43;7.13;;;5.10;;
25731;SDS011;13585;50.864;4.406;2023-09-12T14:57:12;8.18;;;5.95;;
25731;SDS011;13585;50.864;4.406;2023-09-12T14:59:39;7.72;;;5.95;;
25731;SDS011;13585;50.864;4.406;2023-09-12T15:02:09;10.13;;;6.15;;
25731;SDS011;13585;50.864;4.406;2023-09-12T15:04:34;6.97;;;4.85;;
25731;SDS011;13585;50.864;4.406;2023-09-12T15:07:00;11.85;;;5.57;;
25731;SDS011;13585;50.864;4.406;2023-09-12T15:09:26;8.30;;;5.45;;
25731;SDS011;13585;50.864;4.406;2023-09-12T15:11:51;8.65;;;5.15;;
25731;SDS011;13585;50.864;4.406;2023-09-12T15:14:17;7.07;;;5.43;;
25731;SDS011;13585;50.864;4.406;2023-09-12T15:16:51;9.48;;;5.20;;
25731;SDS011;13585;50.864;4.406;2023-09-12T15:19:16;8.20;;;5.07;;
25731;SDS011;13585;50.864;4.406;2023-09-12T15:21:42;8.27;;;4.65;;
25731;SDS011;13585;50.864;4.406;2023-09-12T15:24:16;9.90;;;4.90;;
25731;SDS011;13585;50.864;4.406;2023-09-12T15:26:42;7.82;;;4.70;;
25731;SDS011;13585;50.864;4.406;2023-09-12T15:29:07;7.38;;;5.05;;
25731;SDS011;13585;50.864;4.406;2023-09-12T15:31:36;8.90;;;5.38;;
25731;SDS011;13585;50.864;4.406;2023-09-12T15:34:01;8.38;;;5.22;;
25731;SDS011;13585;50.864;4.406;2023-09-12T15:36:27;11.30;;;5.45;;
25731;SDS011;13585;50.864;4.406;2023-09-12T15:38:57;8.23;;;5.15;;
25731;SDS011;13585;50.864;4.406;2023-09-12T15:41:25;7.68;;;4.80;;
25731;SDS011;13585;50.864;4.406;2023-09-12T15:43:51;9.07;;;5.43;;
25731;SDS011;13585;50.864;4.406;2023-09-12T15:46:16;8.32;;;5.97;;
25731;SDS011;13585;50.864;4.406;2023-09-12T15:48:42;9.70;;;6.13;;
25731;SDS011;13585;50.864;4.406;2023-09-12T15:51:08;12.27;;;6.32;;
25731;SDS011;13585;50.864;4.406;2023-09-12T15:53:34;8.73;;;6.40;;
25731;SDS011;13585;50.864;4.406;2023-09-12T15:55:59;10.23;;;6.30;;
25731;SDS011;13585;50.864;4.406;2023-09-12T15:58:25;9.57;;;6.40;;
25731;SDS011;13585;50.864;4.406;2023-09-12T16:00:53;11.07;;;6.25;;
25731;SDS011;13585;50.864;4.406;2023-09-12T16:03:20;11.77;;;6.50;;
25731;SDS011;13585;50.864;4.406;2023-09-12T16:05:45;8.07;;;5.85;;
25731;SDS011;13585;50.864;4.406;2023-09-12T16:08:11;11.30;;;6.53;;
25731;SDS011;13585;50.864;4.406;2023-09-12T16:10:39;11.52;;;6.80;;
25731;SDS011;13585;50.864;4.406;2023-09-12T16:13:05;12.02;;;7.32;;
25731;SDS011;13585;50.864;4.406;2023-09-12T16:15:32;11.93;;;7.05;;
25731;SDS011;13585;50.864;4.406;2023-09-12T16:18:05;10.25;;;7.20;;
25731;SDS011;13585;50.864;4.406;2023-09-12T16:22:56;11.27;;;8.23;;
25731;SDS011;13585;50.864;4.406;2023-09-12T16:25:22;14.40;;;8.45;;
25731;SDS011;13585;50.864;4.406;2023-09-12T16:27:47;8.55;;;6.40;;
25731;SDS011;13585;50.864;4.406;2023-09-12T16:30:13;7.88;;;5.55;;
25731;SDS011;13585;50.864;4.406;2023-09-12T16:32:39;11.60;;;7.20;;
25731;SDS011;13585;50.864;4.406;2023-09-12T16:35:05;12.95;;;8.40;;
25731;SDS011;13585;50.864;4.406;2023-09-12T16:37:45;13.05;;;8.23;;
25731;SDS011;13585;50.864;4.406;2023-09-12T16:40:12;13.07;;;8.73;;
25731;SDS011;13585;50.864;4.406;2023-09-12T16:42:44;16.92;;;10.32;;
25731;SDS011;13585;50.864;4.406;2023-09-12T16:45:25;12.52;;;10.07;;
25731;SDS011;13585;50.864;4.406;2023-09-12T16:47:54;14.40;;;10.07;;
25731;SDS011;13585;50.864;4.406;2023-09-12T16:50:27;16.40;;;9.85;;
25731;SDS011;13585;50.864;4.406;2023-09-12T16:53:36;17.83;;;11.45;;
25731;SDS011;13585;50.864;4.406;2023-09-12T16:56:42;14.35;;;9.77;;
25731;SDS011;13585;50.864;4.406;2023-09-12T16:59:19;16.45;;;11.02;;
25731;SDS011;13585;50.864;4.406;2023-09-12T17:01:51;15.05;;;11.07;;
25731;SDS011;13585;50.864;4.406;2023-09-12T17:04:17;15.07;;;10.68;;
25731;SDS011;13585;50.864;4.406;2023-09-12T17:06:55;14.88;;;10.45;;
25731;SDS011;13585;50.864;4.406;2023-09-12T17:09:23;12.48;;;10.05;;
25731;SDS011;13585;50.864;4.406;2023-09-12T17:11:56;13.45;;;10.25;;